TimePST,TemperatureF,Dew PointF,Humidity,Sea Level PressureIn,VisibilityMPH,Wind Direction,Wind SpeedMPH,Gust SpeedMPH,PrecipitationIn,Events,Conditions,WindDirDegrees,DateUTC
12:07 AM,51.1,50.0,96,30.13,2.5,SSW,15.0,24.2,0.04,Rain,Rain,200,2013-12-01 08:07:00
12:10 AM,51.1,50.0,96,30.13,3.0,SSW,15.0,24.2,0.05,Rain,Rain,200,2013-12-01 08:10:00
12:41 AM,52.0,50.0,93,30.11,4.0,SSW,16.1,25.3,0.14,Rain,Rain,200,2013-12-01 08:41:00
12:51 AM,51.8,50.0,94,30.10,3.0,SSW,16.1,29.9,0.16,Rain,Rain,200,2013-12-01 08:51:00
12:55 AM,52.0,50.0,93,30.09,3.0,SSW,15.0,29.9,0.18,Rain,Rain,200,2013-12-01 08:55:00
1:28 AM,53.1,51.1,93,30.09,2.5,SSW,21.9,35.7,0.10,Rain,Rain,210,2013-12-01 09:28:00
1:55 AM,52.0,51.1,97,30.08,1.8,SSW,27.6,38.0,0.19,Rain,Rain,200,2013-12-01 09:55:00
2:11 AM,52.0,51.1,97,30.08,2.0,SSW,21.9,36.8,0.06,Rain,Rain,210,2013-12-01 10:11:00
2:28 AM,52.0,51.1,97,30.08,2.0,SSW,20.7,29.9,0.11,Rain,Light Rain,200,2013-12-01 10:28:00
2:44 AM,52.0,51.1,97,30.08,2.5,SSW,19.6,28.8,0.13,Rain,Light Rain,210,2013-12-01 10:44:00
2:55 AM,52.0,51.1,97,30.08,1.5,SSW,16.1,33.4,0.15,Rain,Light Rain,210,2013-12-01 10:55:00
3:21 AM,52.0,52.0,100,30.08,2.5,SW,17.3,26.5,0.04,Rain,Light Rain,220,2013-12-01 11:21:00
3:28 AM,52.0,52.0,100,30.07,4.0,SSW,16.1,25.3,0.04,Rain,Light Rain,210,2013-12-01 11:28:00
3:41 AM,53.1,52.0,96,30.07,1.8,SW,17.3,28.8,0.05,Rain,Light Rain,220,2013-12-01 11:41:00
3:55 AM,53.1,52.0,96,30.08,1.2,SW,18.4,28.8,0.07,Rain,Light Rain,230,2013-12-01 11:55:00
4:07 AM,53.1,52.0,96,30.07,2.0,SW,18.4,28.8,0.01,Rain,Light Rain,230,2013-12-01 12:07:00
4:35 AM,53.1,52.0,96,30.07,1.5,SW,17.3,25.3,0.02,Rain,Light Rain,230,2013-12-01 12:35:00
4:47 AM,53.1,52.0,96,30.07,2.5,SW,17.3,25.3,0.03,Rain,Light Rain,230,2013-12-01 12:47:00
4:55 AM,53.1,52.0,96,30.07,2.0,SW,15.0,25.3,0.03,Rain,Light Rain,230,2013-12-01 12:55:00
5:11 AM,53.1,52.0,96,30.08,1.8,WSW,19.6,28.8,0.01,Rain,Light Rain,240,2013-12-01 13:11:00
5:48 AM,53.1,52.0,96,30.07,2.0,WSW,16.1,28.8,0.04,Rain,Light Rain,240,2013-12-01 13:48:00
5:55 AM,53.1,52.0,96,30.08,2.5,WSW,15.0,28.8,0.04,Rain,Light Rain,250,2013-12-01 13:55:00
6:23 AM,53.1,52.0,96,30.09,1.8,WSW,18.4,28.8,0.01,Rain,Light Rain,250,2013-12-01 14:23:00
6:44 AM,53.1,52.0,96,30.08,2.0,WSW,17.3,29.9,0.02,Rain,Light Rain,240,2013-12-01 14:44:00
6:55 AM,53.1,52.0,96,30.08,2.5,WSW,16.1,25.3,0.02,Rain,Light Rain,240,2013-12-01 14:55:00
7:03 AM,53.1,52.0,96,30.08,4.0,WSW,18.4,25.3,0.00,Rain,Light Rain,240,2013-12-01 15:03:00
7:35 AM,53.1,52.0,96,30.09,1.8,WSW,13.8,-,0.01,Rain,Light Rain,240,2013-12-01 15:35:00
7:51 AM,53.6,51.8,94,30.10,2.0,WSW,18.4,24.2,0.03,Rain,Light Rain,240,2013-12-01 15:51:00
7:55 AM,53.1,52.0,96,30.10,2.0,WSW,17.3,24.2,0.03,Rain,Light Rain,240,2013-12-01 15:55:00
8:11 AM,53.1,52.0,96,30.10,1.5,WSW,16.1,24.2,0.01,Rain,Light Rain,240,2013-12-01 16:11:00
8:27 AM,53.1,52.0,96,30.10,2.5,SW,15.0,25.3,0.02,Rain,Light Rain,230,2013-12-01 16:27:00
8:35 AM,53.1,52.0,96,30.10,4.0,SW,16.1,25.3,0.02,Rain,Light Rain,230,2013-12-01 16:35:00
8:44 AM,53.1,52.0,96,30.10,1.8,SW,18.4,-,0.02,Rain,Light Rain,230,2013-12-01 16:44:00
8:55 AM,53.1,52.0,96,30.11,1.5,SW,12.7,26.5,0.02,Rain,Light Rain,230,2013-12-01 16:55:00
9:06 AM,53.1,52.0,96,30.11,1.0,SW,15.0,23.0,0.00,Rain,Light Rain,230,2013-12-01 17:06:00
9:55 AM,52.0,52.0,100,30.11,1.0,SW,17.3,26.5,0.03,Rain,Light Rain,220,2013-12-01 17:55:00
10:16 AM,52.0,52.0,100,30.10,2.0,SW,13.8,25.3,0.01,Rain,Light Rain,220,2013-12-01 18:16:00
10:30 AM,52.0,52.0,100,30.10,1.2,SW,16.1,24.2,0.01,Rain,Light Rain,220,2013-12-01 18:30:00
10:51 AM,51.8,51.8,100,30.09,2.0,SW,15.0,26.5,0.02,Rain,Light Rain,220,2013-12-01 18:51:00
10:55 AM,52.0,52.0,100,30.09,2.0,SW,15.0,27.6,0.02,Rain,Light Rain,220,2013-12-01 18:55:00
11:05 AM,52.0,52.0,100,30.09,1.5,SW,17.3,26.5,0.00,,Overcast,230,2013-12-01 19:05:00
11:13 AM,52.0,52.0,100,30.09,1.0,SW,17.3,27.6,0.00,Rain,Light Rain,220,2013-12-01 19:13:00
11:25 AM,52.0,52.0,100,30.08,1.5,SW,17.3,27.6,0.00,Rain,Light Rain,220,2013-12-01 19:25:00
11:30 AM,52.0,52.0,100,30.08,1.0,SW,15.0,27.6,0.00,Rain,Light Rain,220,2013-12-01 19:30:00
11:38 AM,52.0,52.0,100,30.07,0.8,SW,16.1,26.5,0.02,Rain,Light Rain,220,2013-12-01 19:38:00
11:55 AM,53.1,52.0,96,30.06,0.8,SSW,18.4,35.7,0.03,Rain,Light Rain,210,2013-12-01 19:55:00
12:19 PM,53.1,52.0,96,30.05,1.0,SW,23.0,33.4,0.01,Rain,Light Rain,220,2013-12-01 20:19:00
12:25 PM,53.1,52.0,96,30.04,0.8,SSW,21.9,33.4,0.02,Rain,Light Rain,210,2013-12-01 20:25:00
12:37 PM,53.1,52.0,96,30.04,0.8,SW,18.4,33.4,0.03,Rain,Light Rain,220,2013-12-01 20:37:00
12:53 PM,51.8,51.8,100,30.03,1.0,SW,21.9,31.1,0.03,Rain,Light Rain,220,2013-12-01 20:53:00
12:55 PM,52.0,52.0,100,30.03,1.0,SW,19.6,29.9,0.03,Rain,Light Rain,220,2013-12-01 20:55:00
1:04 PM,53.1,52.0,96,30.02,0.8,SW,18.4,34.5,0.00,Rain,Light Rain,220,2013-12-01 21:04:00
1:15 PM,53.1,52.0,96,30.02,1.0,SSW,17.3,29.9,0.02,Rain,Light Rain,210,2013-12-01 21:15:00
1:55 PM,53.1,52.0,96,30.00,1.0,SW,18.4,33.4,0.04,Rain,Light Rain,230,2013-12-01 21:55:00
2:11 PM,53.1,52.0,96,30.00,0.8,SW,23.0,41.4,0.00,Rain,Light Rain,230,2013-12-01 22:11:00
2:33 PM,53.1,52.0,96,29.98,0.8,SW,23.0,33.4,0.04,Rain,Light Rain,230,2013-12-01 22:33:00
2:43 PM,53.1,52.0,96,29.98,1.0,SW,24.2,36.8,0.04,Rain,Light Rain,230,2013-12-01 22:43:00
2:52 PM,53.6,51.8,94,29.98,1.5,SW,23.0,36.8,0.05,Rain,Light Rain,230,2013-12-01 22:52:00
2:55 PM,53.1,52.0,96,29.98,1.0,SW,21.9,34.5,0.05,Rain,Light Rain,230,2013-12-01 22:55:00
3:18 PM,53.1,52.0,96,29.98,0.8,SW,25.3,38.0,0.01,Rain,Light Rain,220,2013-12-01 23:18:00
3:36 PM,52.0,52.0,100,29.97,1.0,SW,21.9,36.8,0.04,Rain,Light Rain,220,2013-12-01 23:36:00
3:55 PM,52.0,52.0,100,29.97,1.8,SW,24.2,38.0,0.05,Rain,Light Rain,230,2013-12-01 23:55:00
4:41 PM,50.0,50.0,100,29.98,2.0,West,17.3,-,0.11,Rain,Light Rain,270,2013-12-02 00:41:00
4:55 PM,50.0,48.9,96,29.98,2.0,WNW,15.0,25.3,0.14,Rain,Rain,290,2013-12-02 00:55:00
5:24 PM,50.0,48.9,96,29.97,2.0,West,11.5,-,0.06,Rain,Rain,280,2013-12-02 01:24:00
5:53 PM,50.0,48.2,94,29.96,3.0,West,12.7,21.9,0.13,Rain,Light Rain,260,2013-12-02 01:53:00
5:55 PM,50.0,48.9,96,29.96,3.0,West,12.7,21.9,0.13,Rain,Rain,260,2013-12-02 01:55:00
6:05 PM,50.0,48.9,96,29.97,3.0,West,12.7,-,0.03,Rain,Light Rain,270,2013-12-02 02:05:00
6:22 PM,50.0,50.0,100,29.97,2.5,West,11.5,-,0.07,Rain,Rain,270,2013-12-02 02:22:00
6:33 PM,50.0,48.9,96,29.96,3.0,West,16.1,-,0.10,Rain,Light Rain,260,2013-12-02 02:33:00
6:55 PM,50.0,50.0,100,29.95,4.0,West,13.8,23.0,0.14,Rain,Light Rain,260,2013-12-02 02:55:00
7:27 PM,50.0,48.0,93,29.96,4.0,West,17.3,27.6,0.06,Rain,Rain,280,2013-12-02 03:27:00
7:39 PM,48.9,48.0,97,29.96,3.0,West,12.7,27.6,0.09,Rain,Rain,280,2013-12-02 03:39:00
7:55 PM,48.9,48.0,97,29.95,4.0,West,13.8,-,0.12,Rain,Light Rain,270,2013-12-02 03:55:00
8:36 PM,48.9,48.0,97,29.95,5.0,West,15.0,26.5,0.06,Rain,Light Rain,270,2013-12-02 04:36:00
8:55 PM,48.9,48.0,97,29.96,6.0,West,15.0,-,0.07,Rain,Light Rain,270,2013-12-02 04:55:00
9:36 PM,48.9,46.9,93,29.96,10.0,West,12.7,-,0.02,,Overcast,280,2013-12-02 05:36:00
9:55 PM,46.9,46.0,97,29.96,2.5,WNW,16.1,27.6,0.03,Rain,Light Rain,290,2013-12-02 05:55:00
10:10 PM,46.9,46.0,97,29.97,3.0,WNW,17.3,23.0,0.00,Rain,Light Rain,290,2013-12-02 06:10:00
10:18 PM,46.9,45.0,93,29.97,4.0,WNW,15.0,26.5,0.00,Rain,Light Rain,290,2013-12-02 06:18:00
10:28 PM,46.9,45.0,93,29.97,5.0,West,12.7,-,0.00,Rain,Light Rain,280,2013-12-02 06:28:00
10:55 PM,46.9,43.0,86,29.96,9.0,West,16.1,21.9,0.01,,Overcast,280,2013-12-02 06:55:00
11:11 PM,46.9,42.1,83,29.96,10.0,WNW,13.8,-,N/A,,Overcast,290,2013-12-02 07:11:00
11:55 PM,46.0,39.9,79,29.97,10.0,North,-9999.0,-,0.00,,Overcast,0,2013-12-02 07:55:00